createdAt,value
2022-12-20T00:01:56.393Z,27.95
2022-12-20T00:04:24.781Z,27.52
2022-12-20T00:06:52.926Z,26.77
2022-12-20T00:09:26.063Z,28.08
2022-12-20T00:12:00.682Z,27.25
2022-12-20T00:14:33.332Z,29.70
2022-12-20T00:17:09.128Z,23.98
2022-12-20T00:19:45.094Z,26.70
2022-12-20T00:22:17.055Z,28.20
2022-12-20T00:24:59.535Z,28.05
2022-12-20T00:27:32.123Z,25.48
2022-12-20T00:30:03.891Z,26.85
2022-12-20T00:32:35.988Z,29.15
2022-12-20T00:35:08.106Z,29.25
2022-12-20T00:37:39.449Z,28.98
2022-12-20T00:40:18.663Z,27.50
2022-12-20T00:42:48.286Z,25.38
2022-12-20T00:45:16.734Z,28.63
2022-12-20T00:47:44.865Z,27.63
2022-12-20T00:50:13.581Z,26.55
2022-12-20T00:52:41.641Z,26.85
2022-12-20T00:55:11.284Z,27.50
2022-12-20T00:57:41.799Z,28.48
2022-12-20T01:00:11.475Z,27.98
2022-12-20T01:02:40.754Z,27.05
2022-12-20T01:05:09.691Z,27.65
2022-12-20T01:07:39.866Z,29.38
2022-12-20T01:10:10.988Z,25.13
2022-12-20T01:12:39.142Z,23.38
2022-12-20T01:15:08.902Z,26.60
2022-12-20T01:17:38.113Z,26.25
2022-12-20T01:20:07.604Z,26.45
2022-12-20T01:22:35.785Z,26.67
2022-12-20T01:25:03.973Z,25.33
2022-12-20T01:27:33.783Z,24.55
2022-12-20T01:30:02.097Z,25.70
2022-12-20T01:32:30.190Z,26.60
2022-12-20T01:34:58.262Z,28.25
2022-12-20T01:37:26.347Z,25.85
2022-12-20T01:39:54.516Z,26.60
2022-12-20T01:42:22.785Z,27.27
2022-12-20T01:44:59.864Z,26.73
2022-12-20T01:47:32.789Z,24.70
2022-12-20T01:50:04.092Z,27.15
2022-12-20T01:52:36.919Z,26.88
2022-12-20T01:55:10.909Z,24.83
2022-12-20T01:57:45.404Z,26.15
2022-12-20T02:00:17.533Z,23.70
2022-12-20T02:02:47.682Z,30.65
2022-12-20T02:05:16.943Z,29.23
2022-12-20T02:07:48.804Z,29.05
2022-12-20T02:10:18.530Z,26.50
2022-12-20T02:12:47.877Z,27.05
2022-12-20T02:15:33.477Z,25.98
2022-12-20T02:18:17.323Z,27.85
2022-12-20T02:21:09.438Z,27.50
2022-12-20T02:24:28.788Z,28.67
2022-12-20T02:27:28.817Z,25.52
2022-12-20T02:30:11.388Z,25.90
2022-12-20T02:32:45.737Z,26.58
2022-12-20T02:35:21.296Z,30.35
2022-12-20T02:37:51.154Z,29.90
2022-12-20T02:40:24.711Z,25.92
2022-12-20T02:42:57.397Z,24.83
2022-12-20T02:45:29.359Z,28.15
2022-12-20T02:48:00.690Z,28.13
2022-12-20T02:50:36.997Z,26.58
2022-12-20T02:53:07.455Z,26.17
2022-12-20T02:55:43.914Z,27.88
2022-12-20T02:58:19.391Z,24.20
2022-12-20T03:03:24.283Z,24.77
2022-12-20T03:05:54.575Z,26.92
2022-12-20T03:08:25.083Z,27.73
2022-12-20T03:10:55.541Z,25.50
2022-12-20T03:13:25.268Z,27.35
2022-12-20T03:18:30.688Z,24.70
2022-12-20T03:20:58.778Z,26.65
2022-12-20T03:23:26.926Z,27.20
2022-12-20T03:25:55.528Z,26.77
2022-12-20T03:28:43.766Z,27.10
2022-12-20T03:31:16.557Z,26.52
2022-12-20T03:33:49.444Z,25.48
2022-12-20T03:36:23.347Z,24.83
2022-12-20T03:38:56.598Z,25.60
2022-12-20T03:41:26.974Z,24.98
2022-12-20T03:43:55.447Z,27.67
2022-12-20T03:46:26.672Z,27.27
2022-12-20T03:48:55.247Z,26.92
2022-12-20T03:51:24.269Z,26.08
2022-12-20T03:53:52.746Z,26.90
2022-12-20T03:56:27.214Z,27.25
2022-12-20T03:58:56.552Z,26.35
2022-12-20T04:01:27.858Z,31.30
2022-12-20T04:03:57.757Z,27.35
2022-12-20T04:06:26.023Z,27.77
2022-12-20T04:08:54.073Z,29.30
2022-12-20T04:11:28.351Z,26.70
2022-12-20T04:14:08.172Z,27.90
2022-12-20T04:16:38.097Z,26.80
2022-12-20T04:19:10.165Z,28.88
2022-12-20T04:21:42.626Z,26.52
2022-12-20T04:24:11.475Z,26.67
2022-12-20T04:26:45.124Z,26.88
2022-12-20T04:29:14.623Z,31.17
2022-12-20T04:31:45.285Z,28.83
2022-12-20T04:34:13.663Z,27.35
2022-12-20T04:36:41.882Z,27.17
2022-12-20T04:39:16.129Z,28.65
2022-12-20T04:42:09.885Z,24.75
2022-12-20T04:44:38.666Z,28.75
2022-12-20T04:47:08.159Z,24.83
2022-12-20T04:49:36.274Z,27.48
2022-12-20T04:52:18.489Z,25.38
2022-12-20T04:54:47.787Z,26.67
2022-12-20T04:57:20.383Z,27.02
2022-12-20T04:59:48.589Z,27.65
2022-12-20T05:02:18.225Z,27.27
2022-12-20T05:04:51.685Z,28.08
2022-12-20T05:07:22.450Z,26.13
2022-12-20T05:09:55.730Z,26.65
2022-12-20T05:12:24.411Z,26.30
2022-12-20T05:14:53.598Z,27.33
2022-12-20T05:17:24.858Z,25.38
2022-12-20T05:19:54.434Z,26.83
2022-12-20T05:22:41.000Z,26.15
2022-12-20T05:25:29.916Z,26.83
2022-12-20T05:28:01.280Z,26.17
2022-12-20T05:30:34.143Z,26.67
2022-12-20T05:33:03.836Z,25.70
2022-12-20T05:35:33.055Z,25.95
2022-12-20T05:38:07.918Z,25.85
2022-12-20T05:40:36.846Z,27.23
2022-12-20T05:43:06.232Z,28.33
2022-12-20T05:48:18.218Z,25.88
2022-12-20T05:50:47.109Z,24.75
2022-12-20T05:53:30.285Z,29.92
2022-12-20T05:56:02.437Z,26.38
2022-12-20T05:58:33.600Z,29.60
2022-12-20T06:01:04.211Z,23.83
2022-12-20T06:03:38.573Z,25.17
2022-12-20T06:06:14.583Z,24.73
2022-12-20T06:08:45.789Z,25.17
2022-12-20T06:11:30.405Z,26.60
2022-12-20T06:14:06.197Z,26.70
2022-12-20T06:16:36.713Z,24.13
2022-12-20T06:19:09.729Z,26.05
2022-12-20T06:21:38.259Z,25.65
2022-12-20T06:24:08.117Z,24.70
2022-12-20T06:26:39.176Z,23.77
2022-12-20T06:29:10.225Z,25.85
2022-12-20T06:31:43.328Z,25.48
2022-12-20T06:34:12.844Z,25.33
2022-12-20T06:36:42.849Z,24.85
2022-12-20T06:39:17.522Z,24.55
2022-12-20T06:42:03.385Z,24.70
2022-12-20T06:44:31.534Z,26.98
2022-12-20T06:47:00.281Z,25.50
2022-12-20T06:49:29.913Z,26.70
2022-12-20T06:51:58.553Z,24.05
2022-12-20T06:54:34.881Z,24.98
2022-12-20T06:57:03.408Z,24.92
2022-12-20T06:59:33.006Z,26.25
2022-12-20T07:02:01.602Z,25.58
2022-12-20T07:04:34.314Z,25.17
2022-12-20T07:07:02.362Z,25.05
2022-12-20T07:09:30.519Z,23.95
2022-12-20T07:11:58.841Z,25.10
2022-12-20T07:14:27.070Z,25.38
2022-12-20T07:16:55.297Z,25.80
2022-12-20T07:19:26.094Z,32.03
2022-12-20T07:21:56.153Z,27.08
2022-12-20T07:24:24.405Z,25.70
2022-12-20T07:26:54.148Z,23.63
2022-12-20T07:29:22.229Z,25.85
2022-12-20T07:31:50.362Z,25.85
2022-12-20T07:34:18.936Z,24.95
2022-12-20T07:36:47.034Z,24.55
2022-12-20T07:39:16.465Z,25.90
2022-12-20T07:41:44.936Z,24.27
2022-12-20T07:44:17.455Z,23.70
2022-12-20T07:46:45.644Z,24.48
2022-12-20T07:49:13.677Z,22.75
2022-12-20T07:51:45.329Z,23.98
2022-12-20T07:54:18.976Z,25.75
2022-12-20T07:56:49.190Z,25.50
2022-12-20T07:59:21.474Z,23.60
2022-12-20T08:01:50.205Z,22.92
2022-12-20T08:04:21.577Z,24.77
2022-12-20T08:06:51.137Z,23.50
2022-12-20T08:09:20.929Z,25.95
2022-12-20T08:11:49.952Z,24.42
2022-12-20T08:14:19.615Z,24.15
2022-12-20T08:16:47.870Z,25.40
2022-12-20T08:19:16.079Z,24.85
2022-12-20T08:21:44.083Z,23.27
2022-12-20T08:24:12.232Z,23.30
2022-12-20T08:26:42.674Z,24.25
2022-12-20T08:29:11.097Z,21.92
2022-12-20T08:31:41.991Z,23.90
2022-12-20T08:34:14.151Z,21.10
2022-12-20T08:36:42.280Z,20.90
2022-12-20T08:39:11.407Z,23.35
2022-12-20T08:41:40.796Z,24.40
2022-12-20T08:44:09.549Z,21.67
2022-12-20T08:46:38.302Z,22.45
2022-12-20T08:49:06.731Z,24.58
2022-12-20T08:51:34.896Z,19.98
2022-12-20T08:54:03.696Z,23.55
2022-12-20T08:56:31.854Z,21.50
2022-12-20T08:59:01.456Z,20.25
2022-12-20T09:01:30.509Z,22.10
2022-12-20T09:03:58.667Z,20.05
2022-12-20T09:06:26.934Z,20.40
2022-12-20T09:08:55.705Z,20.02
2022-12-20T09:11:26.115Z,16.63
2022-12-20T09:13:57.477Z,19.85
2022-12-20T09:16:28.924Z,20.70
2022-12-20T09:19:05.000Z,19.83
2022-12-20T09:21:35.952Z,17.80
2022-12-20T09:24:04.133Z,19.92
2022-12-20T09:26:36.152Z,18.58
2022-12-20T09:29:04.347Z,21.65
2022-12-20T09:31:33.753Z,19.65
2022-12-20T09:34:02.204Z,19.08
2022-12-20T09:36:30.901Z,19.20
2022-12-20T09:38:59.259Z,22.48
2022-12-20T09:41:32.530Z,20.48
2022-12-20T09:44:05.277Z,21.15
2022-12-20T09:46:35.005Z,22.55
2022-12-20T09:49:04.007Z,21.60
2022-12-20T09:52:16.332Z,19.98
2022-12-20T09:54:52.989Z,20.35
2022-12-20T09:57:30.527Z,20.67
2022-12-20T09:59:58.941Z,18.48
2022-12-20T10:05:27.435Z,22.02
2022-12-20T10:08:04.781Z,21.42
2022-12-20T10:10:52.839Z,21.70
2022-12-20T10:13:36.230Z,24.23
2022-12-20T10:16:17.179Z,20.10
2022-12-20T10:19:01.461Z,19.95
2022-12-20T10:21:41.782Z,20.55
2022-12-20T10:24:17.391Z,23.33
2022-12-20T10:26:46.802Z,21.20
2022-12-20T10:29:14.863Z,19.23
2022-12-20T10:31:43.381Z,18.80
2022-12-20T10:34:12.820Z,20.75
2022-12-20T10:36:41.937Z,19.88
2022-12-20T10:39:11.203Z,19.17
2022-12-20T10:41:51.880Z,19.55
2022-12-20T10:44:24.966Z,19.83
2022-12-20T10:46:56.048Z,19.55
2022-12-20T10:49:31.229Z,18.48
2022-12-20T10:52:02.067Z,18.42
2022-12-20T10:54:35.246Z,16.85
2022-12-20T10:57:15.059Z,18.20
2022-12-20T10:59:46.869Z,18.63
2022-12-20T11:02:37.191Z,18.80
2022-12-20T11:05:24.326Z,17.90
2022-12-20T11:10:45.856Z,19.83
2022-12-20T11:13:23.307Z,19.17
2022-12-20T11:15:55.402Z,17.60
2022-12-20T11:18:32.851Z,18.20
2022-12-20T11:21:21.522Z,15.80
2022-12-20T11:24:03.532Z,18.02
2022-12-20T11:29:21.514Z,18.58
2022-12-20T11:31:58.196Z,20.73
2022-12-20T11:34:36.057Z,24.05
2022-12-20T11:37:21.479Z,21.27
2022-12-20T11:40:06.761Z,19.90
2022-12-20T11:42:50.956Z,18.73
2022-12-20T11:45:27.722Z,21.27
2022-12-20T11:48:24.415Z,16.90
2022-12-20T11:51:03.852Z,19.45
2022-12-20T11:53:39.117Z,17.13
2022-12-20T11:56:15.434Z,17.40
2022-12-20T11:58:51.825Z,16.73
2022-12-20T12:01:23.145Z,16.63
2022-12-20T12:04:05.253Z,16.55
2022-12-20T12:06:37.214Z,18.15
2022-12-20T12:09:24.956Z,16.20
2022-12-20T12:12:07.460Z,17.80
2022-12-20T12:14:56.303Z,18.33
2022-12-20T12:17:30.415Z,20.83
2022-12-20T12:20:09.491Z,16.67
2022-12-20T12:22:40.445Z,19.92
2022-12-20T12:25:17.803Z,17.77
2022-12-20T12:27:45.877Z,18.77
2022-12-20T12:30:15.237Z,15.13
2022-12-20T12:32:46.508Z,16.27
2022-12-20T12:35:46.031Z,18.83
2022-12-20T12:38:31.687Z,16.20
2022-12-20T12:41:28.428Z,17.42
2022-12-20T12:43:59.966Z,17.20
2022-12-20T12:46:31.515Z,16.52
2022-12-20T12:49:01.452Z,17.35
2022-12-20T12:51:32.978Z,16.75
2022-12-20T12:54:17.364Z,16.42
2022-12-20T12:56:48.868Z,15.30
2022-12-20T12:59:51.856Z,15.68
2022-12-20T13:02:37.464Z,17.52
2022-12-20T13:05:35.872Z,18.08
2022-12-20T13:08:05.056Z,18.05
2022-12-20T13:11:09.550Z,15.43
2022-12-20T13:13:38.984Z,18.58
2022-12-20T13:17:09.301Z,19.52
2022-12-20T13:19:36.260Z,14.50
2022-12-20T13:22:22.618Z,17.80
2022-12-20T13:24:57.048Z,16.63
2022-12-20T13:27:36.610Z,16.00
2022-12-20T13:30:28.442Z,15.23
2022-12-20T13:33:25.160Z,15.38
2022-12-20T13:36:21.416Z,16.70
2022-12-20T13:38:55.366Z,17.55
2022-12-20T13:41:39.779Z,15.90
2022-12-20T13:44:37.839Z,14.60
2022-12-20T13:47:35.490Z,15.90
2022-12-20T13:50:21.534Z,22.27
2022-12-20T13:52:50.351Z,17.38
2022-12-20T13:55:25.804Z,17.90
2022-12-20T13:57:55.361Z,16.70
2022-12-20T14:00:26.437Z,17.02
2022-12-20T14:02:56.751Z,18.08
2022-12-20T14:05:28.436Z,16.30
2022-12-20T14:08:00.984Z,16.42
2022-12-20T14:10:31.440Z,16.48
2022-12-20T14:12:59.825Z,17.80
2022-12-20T14:15:30.934Z,16.65
2022-12-20T14:18:06.865Z,16.30
2022-12-20T14:20:36.865Z,16.48
2022-12-20T14:23:07.786Z,18.20
2022-12-20T14:25:43.291Z,16.15
2022-12-20T14:28:26.820Z,17.13
2022-12-20T14:30:57.167Z,18.05
2022-12-20T14:33:35.690Z,17.50
2022-12-20T14:36:12.164Z,17.17
2022-12-20T14:38:41.380Z,17.95
2022-12-20T14:41:35.618Z,17.98
2022-12-20T14:44:18.549Z,17.73
2022-12-20T14:46:51.379Z,17.98
2022-12-20T14:49:25.632Z,19.23
2022-12-20T14:52:06.543Z,18.95
2022-12-20T14:57:26.711Z,19.65
2022-12-20T15:00:01.059Z,19.25
2022-12-20T15:02:37.233Z,18.42
2022-12-20T15:05:47.992Z,20.17
2022-12-20T15:08:18.470Z,18.17
2022-12-20T15:10:56.184Z,20.85
2022-12-20T15:13:29.094Z,18.55
2022-12-20T15:15:59.087Z,19.10
2022-12-20T15:18:27.388Z,19.52
2022-12-20T15:21:11.514Z,19.48
2022-12-20T15:23:45.942Z,19.50
2022-12-20T15:26:17.778Z,18.10
2022-12-20T15:28:46.188Z,19.48
2022-12-20T15:31:17.515Z,20.13
2022-12-20T15:33:48.456Z,18.88
2022-12-20T15:36:20.481Z,18.05
2022-12-20T15:41:37.169Z,18.05
2022-12-20T15:44:08.560Z,19.13
2022-12-20T15:46:36.916Z,19.15
2022-12-20T15:49:05.123Z,18.25
2022-12-20T15:51:36.787Z,19.88
2022-12-20T15:54:08.069Z,19.98
2022-12-20T15:56:36.190Z,20.85
2022-12-20T15:59:24.539Z,19.77
2022-12-20T16:01:53.470Z,23.58
2022-12-20T16:04:22.736Z,18.67
2022-12-20T16:06:53.695Z,20.45
2022-12-20T16:09:25.521Z,21.60
2022-12-20T16:11:54.085Z,20.95
2022-12-20T16:14:23.576Z,18.98
2022-12-20T16:16:52.259Z,20.70
2022-12-20T16:19:20.368Z,19.13
2022-12-20T16:21:51.073Z,20.15
2022-12-20T16:24:21.685Z,23.45
2022-12-20T16:26:50.261Z,18.77
2022-12-20T16:29:18.426Z,20.83
2022-12-20T16:31:46.647Z,19.70
2022-12-20T16:34:16.989Z,22.55
2022-12-20T16:36:45.730Z,20.45
2022-12-20T16:39:14.084Z,18.55
2022-12-20T16:41:44.330Z,22.48
2022-12-20T16:44:16.172Z,20.02
2022-12-20T16:46:46.715Z,21.30
2022-12-20T16:49:20.456Z,24.00
2022-12-20T16:51:51.591Z,19.98
2022-12-20T16:54:23.365Z,18.75
2022-12-20T16:56:56.012Z,20.35
2022-12-20T16:59:25.270Z,18.60
2022-12-20T17:01:56.039Z,18.73
2022-12-20T17:04:26.844Z,20.98
2022-12-20T17:06:55.264Z,19.42
2022-12-20T17:09:23.475Z,18.33
2022-12-20T17:11:52.864Z,18.63
2022-12-20T17:14:23.065Z,20.05
2022-12-20T17:16:51.382Z,20.40
2022-12-20T17:19:19.551Z,21.33
2022-12-20T17:24:35.467Z,19.98
2022-12-20T17:27:05.621Z,20.48
2022-12-20T17:29:33.944Z,20.63
2022-12-20T17:32:03.873Z,21.05
2022-12-20T17:34:32.482Z,21.52
2022-12-20T17:37:00.741Z,22.65
2022-12-20T17:39:28.935Z,21.23
2022-12-20T17:41:57.032Z,21.52
2022-12-20T17:44:28.369Z,20.13
2022-12-20T17:46:58.464Z,22.63
2022-12-20T17:49:26.591Z,21.88
2022-12-20T17:51:56.351Z,24.00
2022-12-20T17:54:26.706Z,24.48
2022-12-20T17:56:55.112Z,22.58
2022-12-20T17:59:25.508Z,23.80
2022-12-20T18:01:55.101Z,21.67
2022-12-20T18:04:23.553Z,20.13
2022-12-20T18:06:52.284Z,23.13
2022-12-20T18:09:22.771Z,21.90
2022-12-20T18:11:50.930Z,24.30
2022-12-20T18:14:19.161Z,21.88
2022-12-20T18:16:47.530Z,23.92
2022-12-20T18:19:18.956Z,23.48
2022-12-20T18:21:47.069Z,23.20
2022-12-20T18:24:17.399Z,25.42
2022-12-20T18:26:47.897Z,26.05
2022-12-20T18:29:16.033Z,23.45
2022-12-20T18:31:44.308Z,20.17
2022-12-20T18:34:12.480Z,20.70
2022-12-20T18:36:42.243Z,23.65
2022-12-20T18:39:14.621Z,20.60
2022-12-20T18:41:44.212Z,22.90
2022-12-20T18:44:12.623Z,23.98
2022-12-20T18:46:40.826Z,24.75
2022-12-20T18:49:10.129Z,22.65
2022-12-20T18:51:38.343Z,24.80
2022-12-20T18:54:09.339Z,24.23
2022-12-20T18:56:40.843Z,23.40
2022-12-20T18:59:13.108Z,22.13
2022-12-20T19:01:43.272Z,21.70
2022-12-20T19:04:12.324Z,22.73
2022-12-20T19:06:41.079Z,24.10
2022-12-20T19:09:14.060Z,25.73
2022-12-20T19:11:42.704Z,23.92
2022-12-20T19:14:12.402Z,25.70
2022-12-20T19:16:41.265Z,25.55
2022-12-20T19:19:09.670Z,25.20
2022-12-20T19:21:41.570Z,25.15
2022-12-20T19:24:11.531Z,24.80
2022-12-20T19:26:40.622Z,24.05
2022-12-20T19:29:09.395Z,24.83
2022-12-20T19:31:40.096Z,26.27
2022-12-20T19:34:11.705Z,23.92
2022-12-20T19:36:41.884Z,23.90
2022-12-20T19:39:20.412Z,25.30
2022-12-20T19:42:21.775Z,23.30
2022-12-20T19:44:40.179Z,24.65
2022-12-20T19:47:08.346Z,23.38
2022-12-20T19:49:36.794Z,23.55
2022-12-20T19:52:06.132Z,23.50
2022-12-20T19:54:36.287Z,22.02
2022-12-20T19:57:04.483Z,22.75
2022-12-20T19:59:32.979Z,21.27
2022-12-20T20:02:01.389Z,22.65
2022-12-20T20:04:29.988Z,23.17
2022-12-20T20:06:58.189Z,24.48
2022-12-20T20:09:26.747Z,23.88
2022-12-20T20:11:56.240Z,21.48
2022-12-20T20:14:24.604Z,23.77
2022-12-20T20:16:55.147Z,23.25
2022-12-20T20:19:23.337Z,24.67
2022-12-20T20:21:51.669Z,21.73
2022-12-20T20:24:20.811Z,22.48
2022-12-20T20:26:51.938Z,22.58
2022-12-20T20:29:21.665Z,22.02
2022-12-20T20:31:50.129Z,23.83
2022-12-20T20:34:21.737Z,24.45
2022-12-20T20:36:49.952Z,25.92
2022-12-20T20:39:18.456Z,24.55
2022-12-20T20:41:46.845Z,22.88
2022-12-20T20:44:15.013Z,23.23
2022-12-20T20:46:44.649Z,22.42
2022-12-20T20:49:12.845Z,22.60
2022-12-20T20:51:41.285Z,24.52
2022-12-20T20:54:10.493Z,23.33
2022-12-20T20:56:38.732Z,24.08
2022-12-20T20:59:09.416Z,28.27
2022-12-20T21:01:45.007Z,26.08
2022-12-20T21:04:13.130Z,23.58
2022-12-20T21:06:42.175Z,26.02
2022-12-20T21:09:11.463Z,29.05
2022-12-20T21:11:40.179Z,23.98
2022-12-20T21:14:08.421Z,27.85
2022-12-20T21:16:36.919Z,26.50
2022-12-20T21:19:06.662Z,27.55
2022-12-20T21:21:34.773Z,22.42
2022-12-20T21:24:02.970Z,23.90
2022-12-20T21:26:31.158Z,23.00
2022-12-20T21:29:01.032Z,25.55
2022-12-20T21:31:29.653Z,25.20
2022-12-20T21:33:58.623Z,23.08
2022-12-20T21:36:28.075Z,26.67
2022-12-20T21:38:58.428Z,24.40
2022-12-20T21:41:27.752Z,23.85
2022-12-20T21:43:56.904Z,25.90
2022-12-20T21:46:25.648Z,26.13
2022-12-20T21:48:53.993Z,24.08
2022-12-20T21:51:26.442Z,23.45
2022-12-20T21:53:59.969Z,21.73
2022-12-20T21:56:29.730Z,25.42
2022-12-20T21:58:58.535Z,23.75
2022-12-20T22:01:28.885Z,24.23
2022-12-20T22:04:01.348Z,23.10
2022-12-20T22:06:30.001Z,25.52
2022-12-20T22:08:59.948Z,25.73
2022-12-20T22:11:28.100Z,22.23
2022-12-20T22:13:58.531Z,23.60
2022-12-20T22:16:30.110Z,23.15
2022-12-20T22:18:59.496Z,26.17
2022-12-20T22:21:30.117Z,21.23
2022-12-20T22:24:00.975Z,23.83
2022-12-20T22:26:31.908Z,23.33
2022-12-20T22:29:02.673Z,23.85
2022-12-20T22:31:31.517Z,22.45
2022-12-20T22:34:00.180Z,21.00
2022-12-20T22:36:30.836Z,24.27
2022-12-20T22:39:00.538Z,26.17
2022-12-20T22:41:34.598Z,23.15
2022-12-20T22:44:02.832Z,24.50
2022-12-20T22:46:33.576Z,26.77
2022-12-20T22:49:02.388Z,27.13
2022-12-20T22:51:33.268Z,25.17
2022-12-20T22:54:05.496Z,25.33
2022-12-20T22:56:33.651Z,24.75
2022-12-20T22:59:02.107Z,26.20
2022-12-20T23:01:30.467Z,24.33
2022-12-20T23:03:59.892Z,22.92
2022-12-20T23:06:30.458Z,24.50
2022-12-20T23:08:58.603Z,22.13
2022-12-20T23:11:47.217Z,24.15
2022-12-20T23:14:34.713Z,25.27
2022-12-20T23:19:53.052Z,24.00
2022-12-20T23:22:39.304Z,23.80
2022-12-20T23:25:10.761Z,23.92
2022-12-20T23:27:42.238Z,25.38
2022-12-20T23:30:12.577Z,23.55
2022-12-20T23:32:44.270Z,26.48
2022-12-20T23:35:17.238Z,24.98
2022-12-20T23:37:45.928Z,22.98
2022-12-20T23:40:16.167Z,24.75
2022-12-20T23:42:46.086Z,21.10
2022-12-20T23:45:14.644Z,25.83
2022-12-20T23:47:45.812Z,25.35
2022-12-20T23:50:15.009Z,23.65
2022-12-20T23:52:43.107Z,27.70
2022-12-20T23:55:11.320Z,24.70
2022-12-20T23:57:39.961Z,23.13
